sensor_id;sensor_type;location;lat;lon;timestamp;pressure;altitude;pressure_sealevel;temperature;humidity
71638;BME280;59485;43.542;-5.676;2023-04-27T00:00:56;101539.25;;;16.62;100.00
71638;BME280;59485;43.542;-5.676;2023-04-27T00:03:21;101517.72;;;16.51;100.00
71638;BME280;59485;43.542;-5.676;2023-04-27T00:05:47;101522.19;;;16.52;100.00
71638;BME280;59485;43.542;-5.676;2023-04-27T00:08:13;101512.78;;;16.33;100.00
71638;BME280;59485;43.542;-5.676;2023-04-27T00:10:38;101502.56;;;16.34;100.00
71638;BME280;59485;43.542;-5.676;2023-04-27T00:13:04;101514.69;;;16.39;100.00
71638;BME280;59485;43.542;-5.676;2023-04-27T00:15:30;101502.78;;;16.26;100.00
71638;BME280;59485;43.542;-5.676;2023-04-27T00:17:55;101521.75;;;16.42;100.00
71638;BME280;59485;43.542;-5.676;2023-04-27T00:20:25;101528.56;;;16.46;100.00
71638;BME280;59485;43.542;-5.676;2023-04-27T00:22:51;101532.16;;;16.40;100.00
71638;BME280;59485;43.542;-5.676;2023-04-27T00:25:28;101487.22;;;16.18;100.00
71638;BME280;59485;43.542;-5.676;2023-04-27T00:27:54;101503.44;;;16.34;100.00
71638;BME280;59485;43.542;-5.676;2023-04-27T00:30:19;101497.25;;;16.32;100.00
71638;BME280;59485;43.542;-5.676;2023-04-27T00:32:45;101478.94;;;16.18;100.00
71638;BME280;59485;43.542;-5.676;2023-04-27T00:35:10;101498.50;;;16.30;100.00
71638;BME280;59485;43.542;-5.676;2023-04-27T00:37:36;101500.66;;;16.28;100.00
71638;BME280;59485;43.542;-5.676;2023-04-27T00:40:04;101517.25;;;16.34;100.00
71638;BME280;59485;43.542;-5.676;2023-04-27T00:42:31;101492.34;;;16.28;100.00
71638;BME280;59485;43.542;-5.676;2023-04-27T00:44:57;101469.78;;;16.18;100.00
71638;BME280;59485;43.542;-5.676;2023-04-27T00:47:23;101469.78;;;16.18;100.00
71638;BME280;59485;43.542;-5.676;2023-04-27T00:49:49;101482.75;;;16.30;100.00
71638;BME280;59485;43.542;-5.676;2023-04-27T00:52:14;101481.28;;;16.28;100.00
71638;BME280;59485;43.542;-5.676;2023-04-27T00:54:40;101493.22;;;16.35;100.00
71638;BME280;59485;43.542;-5.676;2023-04-27T00:57:06;101458.28;;;16.07;100.00
71638;BME280;59485;43.542;-5.676;2023-04-27T00:59:32;101484.47;;;16.25;100.00
71638;BME280;59485;43.542;-5.676;2023-04-27T01:01:58;101481.50;;;16.26;100.00
71638;BME280;59485;43.542;-5.676;2023-04-27T01:04:24;101455.50;;;16.14;100.00
71638;BME280;59485;43.542;-5.676;2023-04-27T01:06:50;101460.41;;;16.19;100.00
71638;BME280;59485;43.542;-5.676;2023-04-27T01:09:16;101466.16;;;16.24;100.00
71638;BME280;59485;43.542;-5.676;2023-04-27T01:11:47;101452.75;;;16.21;100.00
71638;BME280;59485;43.542;-5.676;2023-04-27T01:14:12;101465.09;;;16.25;100.00
71638;BME280;59485;43.542;-5.676;2023-04-27T01:16:38;101440.19;;;16.18;100.00
71638;BME280;59485;43.542;-5.676;2023-04-27T01:19:06;101446.78;;;16.30;100.00
71638;BME280;59485;43.542;-5.676;2023-04-27T01:21:34;101427.84;;;16.21;100.00
71638;BME280;59485;43.542;-5.676;2023-04-27T01:24:00;101424.47;;;16.19;100.00
71638;BME280;59485;43.542;-5.676;2023-04-27T01:26:25;101424.22;;;16.20;100.00
71638;BME280;59485;43.542;-5.676;2023-04-27T01:28:51;101434.66;;;16.31;100.00
71638;BME280;59485;43.542;-5.676;2023-04-27T01:31:16;101429.13;;;16.25;100.00
71638;BME280;59485;43.542;-5.676;2023-04-27T01:33:42;101448.72;;;16.36;100.00
71638;BME280;59485;43.542;-5.676;2023-04-27T01:36:08;101445.31;;;16.34;100.00
71638;BME280;59485;43.542;-5.676;2023-04-27T01:38:34;101436.81;;;16.36;100.00
71638;BME280;59485;43.542;-5.676;2023-04-27T01:41:03;101431.28;;;16.36;100.00
71638;BME280;59485;43.542;-5.676;2023-04-27T01:43:30;101426.34;;;16.38;100.00
71638;BME280;59485;43.542;-5.676;2023-04-27T01:46:07;101424.88;;;16.35;100.00
71638;BME280;59485;43.542;-5.676;2023-04-27T01:48:34;101407.22;;;16.30;100.00
71638;BME280;59485;43.542;-5.676;2023-04-27T01:50:59;101391.88;;;16.21;100.00
71638;BME280;59485;43.542;-5.676;2023-04-27T01:53:25;101396.34;;;16.22;100.00
71638;BME280;59485;43.542;-5.676;2023-04-27T01:55:50;101408.50;;;16.27;100.00
71638;BME280;59485;43.542;-5.676;2023-04-27T01:58:16;101429.13;;;16.31;100.00
71638;BME280;59485;43.542;-5.676;2023-04-27T02:00:41;101422.09;;;16.29;100.00
71638;BME280;59485;43.542;-5.676;2023-04-27T02:03:07;101417.00;;;16.26;100.00
71638;BME280;59485;43.542;-5.676;2023-04-27T02:05:32;101393.38;;;16.17;100.00
71638;BME280;59485;43.542;-5.676;2023-04-27T02:07:58;101389.34;;;16.19;100.00
71638;BME280;59485;43.542;-5.676;2023-04-27T02:10:23;101385.50;;;16.13;100.00
71638;BME280;59485;43.542;-5.676;2023-04-27T02:12:49;101371.88;;;16.05;100.00
71638;BME280;59485;43.542;-5.676;2023-04-27T02:15:14;101380.81;;;16.14;100.00
71638;BME280;59485;43.542;-5.676;2023-04-27T02:17:40;101376.34;;;16.13;100.00
71638;BME280;59485;43.542;-5.676;2023-04-27T02:20:08;101387.00;;;16.23;100.00
71638;BME280;59485;43.542;-5.676;2023-04-27T02:22:35;101384.44;;;16.21;100.00
71638;BME280;59485;43.542;-5.676;2023-04-27T02:25:02;101367.84;;;16.08;100.00
71638;BME280;59485;43.542;-5.676;2023-04-27T02:27:27;101384.88;;;16.18;100.00
71638;BME280;59485;43.542;-5.676;2023-04-27T02:29:53;101372.53;;;16.14;100.00
71638;BME280;59485;43.542;-5.676;2023-04-27T02:32:18;101350.16;;;16.02;100.00
71638;BME280;59485;43.542;-5.676;2023-04-27T02:34:44;101374.03;;;16.17;100.00
71638;BME280;59485;43.542;-5.676;2023-04-27T02:37:09;101374.44;;;16.13;100.00
71638;BME280;59485;43.542;-5.676;2023-04-27T02:39:35;101367.84;;;16.14;100.00
71638;BME280;59485;43.542;-5.676;2023-04-27T02:42:00;101358.69;;;16.07;100.00
71638;BME280;59485;43.542;-5.676;2023-04-27T02:44:28;101368.91;;;16.07;100.00
71638;BME280;59485;43.542;-5.676;2023-04-27T02:46:53;101356.16;;;15.99;100.00
71638;BME280;59485;43.542;-5.676;2023-04-27T02:49:19;101374.84;;;16.04;100.00
71638;BME280;59485;43.542;-5.676;2023-04-27T02:51:45;101360.16;;;15.84;100.00
71638;BME280;59485;43.542;-5.676;2023-04-27T02:54:10;101382.28;;;15.97;100.00
71638;BME280;59485;43.542;-5.676;2023-04-27T02:56:36;101365.25;;;15.87;100.00
71638;BME280;59485;43.542;-5.676;2023-04-27T02:59:01;101362.09;;;15.83;100.00
71638;BME280;59485;43.542;-5.676;2023-04-27T03:01:27;101379.53;;;15.90;100.00
71638;BME280;59485;43.542;-5.676;2023-04-27T03:03:52;101356.53;;;15.76;100.00
71638;BME280;59485;43.542;-5.676;2023-04-27T03:06:18;101378.47;;;15.91;100.00
71638;BME280;59485;43.542;-5.676;2023-04-27T03:08:43;101386.97;;;15.83;100.00
71638;BME280;59485;43.542;-5.676;2023-04-27T03:11:09;101300.09;;;15.38;100.00
71638;BME280;59485;43.542;-5.676;2023-04-27T03:13:36;101343.09;;;15.54;100.00
71638;BME280;59485;43.542;-5.676;2023-04-27T03:16:09;101394.16;;;15.77;100.00
71638;BME280;59485;43.542;-5.676;2023-04-27T03:18:38;101398.63;;;15.79;100.00
71638;BME280;59485;43.542;-5.676;2023-04-27T03:21:08;101399.69;;;15.71;100.00
71638;BME280;59485;43.542;-5.676;2023-04-27T03:26:10;101395.44;;;15.75;100.00
71638;BME280;59485;43.542;-5.676;2023-04-27T03:28:37;101373.31;;;15.68;100.00
71638;BME280;59485;43.542;-5.676;2023-04-27T03:31:06;101371.66;;;15.74;100.00
71638;BME280;59485;43.542;-5.676;2023-04-27T03:33:32;101374.63;;;15.79;100.00
71638;BME280;59485;43.542;-5.676;2023-04-27T03:35:58;101378.03;;;15.81;100.00
71638;BME280;59485;43.542;-5.676;2023-04-27T03:38:33;101332.47;;;15.57;100.00
71638;BME280;59485;43.542;-5.676;2023-04-27T03:40:59;101334.59;;;15.55;100.00
71638;BME280;59485;43.542;-5.676;2023-04-27T03:43:25;101381.00;;;15.86;100.00
71638;BME280;59485;43.542;-5.676;2023-04-27T03:45:51;101393.56;;;15.95;100.00
71638;BME280;59485;43.542;-5.676;2023-04-27T03:48:17;101387.63;;;15.98;100.00
71638;BME280;59485;43.542;-5.676;2023-04-27T03:50:43;101369.94;;;15.93;100.00
71638;BME280;59485;43.542;-5.676;2023-04-27T03:53:09;101384.22;;;16.03;100.00
71638;BME280;59485;43.542;-5.676;2023-04-27T03:55:42;101385.72;;;16.05;100.00
71638;BME280;59485;43.542;-5.676;2023-04-27T03:58:09;101374.22;;;16.08;100.00
71638;BME280;59485;43.542;-5.676;2023-04-27T04:00:36;101375.50;;;16.12;100.00
71638;BME280;59485;43.542;-5.676;2023-04-27T04:03:02;101370.41;;;16.16;100.00
71638;BME280;59485;43.542;-5.676;2023-04-27T04:05:28;101346.56;;;16.08;100.00
71638;BME280;59485;43.542;-5.676;2023-04-27T04:07:55;101350.19;;;16.16;100.00
71638;BME280;59485;43.542;-5.676;2023-04-27T04:10:21;101341.88;;;16.16;100.00
71638;BME280;59485;43.542;-5.676;2023-04-27T04:12:46;101349.56;;;16.27;100.00
71638;BME280;59485;43.542;-5.676;2023-04-27T04:15:12;101335.09;;;16.18;100.00
71638;BME280;59485;43.542;-5.676;2023-04-27T04:17:37;101324.44;;;16.22;100.00
71638;BME280;59485;43.542;-5.676;2023-04-27T04:20:03;101323.16;;;16.18;100.00
71638;BME280;59485;43.542;-5.676;2023-04-27T04:22:33;101317.84;;;16.16;100.00
71638;BME280;59485;43.542;-5.676;2023-04-27T04:24:58;101334.63;;;16.21;100.00
71638;BME280;59485;43.542;-5.676;2023-04-27T04:27:24;101342.94;;;16.34;100.00
71638;BME280;59485;43.542;-5.676;2023-04-27T04:29:49;101338.47;;;16.27;100.00
71638;BME280;59485;43.542;-5.676;2023-04-27T04:32:15;101310.41;;;16.10;100.00
71638;BME280;59485;43.542;-5.676;2023-04-27T04:34:43;101319.34;;;16.19;100.00
71638;BME280;59485;43.542;-5.676;2023-04-27T04:37:13;101310.41;;;16.17;100.00
71638;BME280;59485;43.542;-5.676;2023-04-27T04:39:46;101323.56;;;16.21;100.00
71638;BME280;59485;43.542;-5.676;2023-04-27T04:42:14;101287.41;;;16.03;100.00
71638;BME280;59485;43.542;-5.676;2023-04-27T04:44:43;101326.75;;;16.31;100.00
71638;BME280;59485;43.542;-5.676;2023-04-27T04:47:09;101299.97;;;16.19;100.00
71638;BME280;59485;43.542;-5.676;2023-04-27T04:49:35;101309.13;;;16.26;100.00
71638;BME280;59485;43.542;-5.676;2023-04-27T04:52:01;101319.53;;;16.37;100.00
71638;BME280;59485;43.542;-5.676;2023-04-27T04:54:28;101294.84;;;16.22;100.00
71638;BME280;59485;43.542;-5.676;2023-04-27T04:56:54;101297.19;;;16.25;100.00
71638;BME280;59485;43.542;-5.676;2023-04-27T04:59:19;101310.38;;;16.30;100.00
71638;BME280;59485;43.542;-5.676;2023-04-27T05:01:45;101310.13;;;16.38;100.00
71638;BME280;59485;43.542;-5.676;2023-04-27T05:04:10;101289.53;;;16.21;100.00
71638;BME280;59485;43.542;-5.676;2023-04-27T05:06:36;101297.84;;;16.27;100.00
71638;BME280;59485;43.542;-5.676;2023-04-27T05:09:02;101304.84;;;16.36;100.00
71638;BME280;59485;43.542;-5.676;2023-04-27T05:11:28;101298.03;;;16.32;100.00
71638;BME280;59485;43.542;-5.676;2023-04-27T05:13:54;101314.19;;;16.42;100.00
71638;BME280;59485;43.542;-5.676;2023-04-27T05:16:19;101313.97;;;16.50;100.00
71638;BME280;59485;43.542;-5.676;2023-04-27T05:18:45;101303.97;;;16.42;100.00
71638;BME280;59485;43.542;-5.676;2023-04-27T05:21:16;101312.47;;;16.54;100.00
71638;BME280;59485;43.542;-5.676;2023-04-27T05:23:45;101315.00;;;16.56;100.00
71638;BME280;59485;43.542;-5.676;2023-04-27T05:26:15;101325.44;;;16.60;100.00
71638;BME280;59485;43.542;-5.676;2023-04-27T05:28:41;101302.69;;;16.51;100.00
71638;BME280;59485;43.542;-5.676;2023-04-27T05:31:07;101311.84;;;16.52;100.00
71638;BME280;59485;43.542;-5.676;2023-04-27T05:33:32;101341.84;;;16.68;100.00
71638;BME280;59485;43.542;-5.676;2023-04-27T05:35:58;101335.66;;;16.66;100.00
71638;BME280;59485;43.542;-5.676;2023-04-27T05:38:24;101322.47;;;16.55;100.00
71638;BME280;59485;43.542;-5.676;2023-04-27T05:40:56;101342.50;;;16.70;100.00
71638;BME280;59485;43.542;-5.676;2023-04-27T05:43:23;101333.97;;;16.65;100.00
71638;BME280;59485;43.542;-5.676;2023-04-27T05:45:49;101326.13;;;16.62;100.00
71638;BME280;59485;43.542;-5.676;2023-04-27T05:48:15;101334.38;;;16.69;100.00
71638;BME280;59485;43.542;-5.676;2023-04-27T05:50:40;101336.94;;;16.70;100.00
71638;BME280;59485;43.542;-5.676;2023-04-27T05:53:06;101328.84;;;16.69;100.00
71638;BME280;59485;43.542;-5.676;2023-04-27T05:55:32;101348.22;;;16.75;100.00
71638;BME280;59485;43.542;-5.676;2023-04-27T05:57:57;101330.78;;;16.68;100.00
71638;BME280;59485;43.542;-5.676;2023-04-27T06:00:29;101279.50;;;16.39;100.00
71638;BME280;59485;43.542;-5.676;2023-04-27T06:02:55;101298.84;;;16.52;100.00
71638;BME280;59485;43.542;-5.676;2023-04-27T06:05:21;101326.28;;;16.67;100.00
71638;BME280;59485;43.542;-5.676;2023-04-27T06:08:02;101305.88;;;16.55;100.00
71638;BME280;59485;43.542;-5.676;2023-04-27T06:10:27;101347.13;;;16.83;100.00
71638;BME280;59485;43.542;-5.676;2023-04-27T06:15:21;101321.41;;;16.69;100.00
71638;BME280;59485;43.542;-5.676;2023-04-27T06:17:55;101318.22;;;16.72;100.00
71638;BME280;59485;43.542;-5.676;2023-04-27T06:20:25;101341.38;;;16.84;100.00
71638;BME280;59485;43.542;-5.676;2023-04-27T06:23:06;101316.03;;;16.74;100.00
71638;BME280;59485;43.542;-5.676;2023-04-27T06:25:32;101320.53;;;16.82;100.00
71638;BME280;59485;43.542;-5.676;2023-04-27T06:28:04;101343.66;;;17.01;100.00
71638;BME280;59485;43.542;-5.676;2023-04-27T06:30:30;101351.56;;;16.97;100.00
71638;BME280;59485;43.542;-5.676;2023-04-27T06:32:56;101351.34;;;16.92;100.00
71638;BME280;59485;43.542;-5.676;2023-04-27T06:35:21;101351.56;;;16.97;100.00
71638;BME280;59485;43.542;-5.676;2023-04-27T06:37:47;101336.44;;;17.00;100.00
71638;BME280;59485;43.542;-5.676;2023-04-27T06:40:12;101342.97;;;17.12;100.00
71638;BME280;59485;43.542;-5.676;2023-04-27T06:42:38;101355.25;;;17.29;100.00
71638;BME280;59485;43.542;-5.676;2023-04-27T06:45:04;101348.69;;;17.23;100.00
71638;BME280;59485;43.542;-5.676;2023-04-27T06:47:30;101369.28;;;17.41;100.00
71638;BME280;59485;43.542;-5.676;2023-04-27T06:49:55;101347.75;;;17.43;100.00
71638;BME280;59485;43.542;-5.676;2023-04-27T06:52:21;101371.31;;;17.65;100.00
71638;BME280;59485;43.542;-5.676;2023-04-27T06:54:46;101358.09;;;17.60;100.00
71638;BME280;59485;43.542;-5.676;2023-04-27T06:57:12;101345.72;;;17.56;100.00
71638;BME280;59485;43.542;-5.676;2023-04-27T06:59:38;101352.69;;;17.72;100.00
71638;BME280;59485;43.542;-5.676;2023-04-27T07:02:03;101343.72;;;17.77;100.00
71638;BME280;59485;43.542;-5.676;2023-04-27T07:04:29;101335.19;;;17.72;100.00
71638;BME280;59485;43.542;-5.676;2023-04-27T07:06:54;101360.22;;;17.96;100.00
71638;BME280;59485;43.542;-5.676;2023-04-27T07:09:20;101342.50;;;17.97;100.00
71638;BME280;59485;43.542;-5.676;2023-04-27T07:11:46;101355.19;;;18.12;100.00
71638;BME280;59485;43.542;-5.676;2023-04-27T07:14:11;101338.75;;;18.10;100.00
71638;BME280;59485;43.542;-5.676;2023-04-27T07:16:37;101334.47;;;18.14;100.00
71638;BME280;59485;43.542;-5.676;2023-04-27T07:19:03;101326.31;;;18.19;100.00
71638;BME280;59485;43.542;-5.676;2023-04-27T07:21:28;101336.44;;;18.32;100.00
71638;BME280;59485;43.542;-5.676;2023-04-27T07:23:54;101335.53;;;18.38;100.00
71638;BME280;59485;43.542;-5.676;2023-04-27T07:26:20;101337.06;;;18.34;100.00
71638;BME280;59485;43.542;-5.676;2023-04-27T07:28:49;101356.44;;;18.41;100.00
71638;BME280;59485;43.542;-5.676;2023-04-27T07:31:14;101343.75;;;18.26;100.00
71638;BME280;59485;43.542;-5.676;2023-04-27T07:33:40;101346.47;;;18.33;100.00
71638;BME280;59485;43.542;-5.676;2023-04-27T07:36:05;101341.59;;;18.28;100.00
71638;BME280;59485;43.542;-5.676;2023-04-27T07:38:32;101362.38;;;18.44;100.00
71638;BME280;59485;43.542;-5.676;2023-04-27T07:41:00;101354.97;;;18.38;100.00
71638;BME280;59485;43.542;-5.676;2023-04-27T07:43:26;101369.81;;;18.50;100.00
71638;BME280;59485;43.542;-5.676;2023-04-27T07:45:52;101354.16;;;18.56;100.00
71638;BME280;59485;43.542;-5.676;2023-04-27T07:48:22;101346.41;;;18.64;100.00
71638;BME280;59485;43.542;-5.676;2023-04-27T07:50:48;101341.56;;;18.60;100.00
71638;BME280;59485;43.542;-5.676;2023-04-27T07:53:13;101344.47;;;18.65;100.00
71638;BME280;59485;43.542;-5.676;2023-04-27T07:55:39;101332.69;;;18.69;100.00
71638;BME280;59485;43.542;-5.676;2023-04-27T07:58:05;101351.13;;;18.82;100.00
71638;BME280;59485;43.542;-5.676;2023-04-27T08:00:31;101349.72;;;18.73;100.00
71638;BME280;59485;43.542;-5.676;2023-04-27T08:02:56;101347.09;;;18.60;100.00
71638;BME280;59485;43.542;-5.676;2023-04-27T08:05:22;101362.38;;;18.69;100.00
71638;BME280;59485;43.542;-5.676;2023-04-27T08:07:47;101337.00;;;18.65;100.00
71638;BME280;59485;43.542;-5.676;2023-04-27T08:10:14;101352.41;;;18.80;100.00
71638;BME280;59485;43.542;-5.676;2023-04-27T08:12:40;101338.28;;;18.63;100.00
71638;BME280;59485;43.542;-5.676;2023-04-27T08:15:09;101355.06;;;18.74;100.00
71638;BME280;59485;43.542;-5.676;2023-04-27T08:17:35;101351.75;;;18.84;100.00
71638;BME280;59485;43.542;-5.676;2023-04-27T08:20:01;101322.56;;;18.75;100.00
71638;BME280;59485;43.542;-5.676;2023-04-27T08:22:27;101335.22;;;18.71;100.00
71638;BME280;59485;43.542;-5.676;2023-04-27T08:24:53;101346.19;;;18.84;100.00
71638;BME280;59485;43.542;-5.676;2023-04-27T08:27:18;101323.72;;;18.67;100.00
71638;BME280;59485;43.542;-5.676;2023-04-27T08:29:45;101344.16;;;18.73;100.00
71638;BME280;59485;43.542;-5.676;2023-04-27T08:32:11;101342.53;;;18.65;100.00
71638;BME280;59485;43.542;-5.676;2023-04-27T08:34:37;101342.94;;;18.69;100.00
71638;BME280;59485;43.542;-5.676;2023-04-27T08:37:03;101340.16;;;18.69;100.00
71638;BME280;59485;43.542;-5.676;2023-04-27T08:39:28;101316.56;;;18.53;100.00
71638;BME280;59485;43.542;-5.676;2023-04-27T08:41:54;101326.59;;;18.61;100.00
71638;BME280;59485;43.542;-5.676;2023-04-27T08:44:20;101339.53;;;18.67;100.00
71638;BME280;59485;43.542;-5.676;2023-04-27T08:46:45;101346.50;;;18.76;100.00
71638;BME280;59485;43.542;-5.676;2023-04-27T08:49:11;101321.03;;;18.61;100.00
71638;BME280;59485;43.542;-5.676;2023-04-27T08:51:36;101319.47;;;18.65;100.00
71638;BME280;59485;43.542;-5.676;2023-04-27T08:54:02;101303.66;;;18.65;100.00
71638;BME280;59485;43.542;-5.676;2023-04-27T08:56:28;101319.50;;;18.83;100.00
71638;BME280;59485;43.542;-5.676;2023-04-27T08:58:55;101322.88;;;18.85;100.00
71638;BME280;59485;43.542;-5.676;2023-04-27T09:01:22;101304.13;;;18.62;100.00
71638;BME280;59485;43.542;-5.676;2023-04-27T09:03:54;101307.28;;;18.84;100.00
71638;BME280;59485;43.542;-5.676;2023-04-27T09:08:52;101318.22;;;18.97;100.00
71638;BME280;59485;43.542;-5.676;2023-04-27T09:13:53;101295.56;;;18.82;100.00
71638;BME280;59485;43.542;-5.676;2023-04-27T09:16:26;101310.38;;;18.94;100.00
71638;BME280;59485;43.542;-5.676;2023-04-27T09:18:56;101336.16;;;19.01;100.00
71638;BME280;59485;43.542;-5.676;2023-04-27T09:21:27;101328.34;;;18.92;100.00
71638;BME280;59485;43.542;-5.676;2023-04-27T09:23:53;101346.03;;;18.97;100.00
71638;BME280;59485;43.542;-5.676;2023-04-27T09:26:26;101332.63;;;18.94;100.00
71638;BME280;59485;43.542;-5.676;2023-04-27T09:28:53;101344.56;;;18.95;100.00
71638;BME280;59485;43.542;-5.676;2023-04-27T09:31:21;101333.38;;;19.01;100.00
71638;BME280;59485;43.542;-5.676;2023-04-27T09:33:55;101320.47;;;19.07;100.00
71638;BME280;59485;43.542;-5.676;2023-04-27T09:36:21;101325.13;;;19.13;100.00
71638;BME280;59485;43.542;-5.676;2023-04-27T09:38:49;101297.56;;;19.11;100.00
71638;BME280;59485;43.542;-5.676;2023-04-27T09:41:16;101304.59;;;19.14;100.00
71638;BME280;59485;43.542;-5.676;2023-04-27T09:43:42;101309.53;;;19.12;100.00
71638;BME280;59485;43.542;-5.676;2023-04-27T09:46:11;101310.28;;;19.01;100.00
71638;BME280;59485;43.542;-5.676;2023-04-27T09:48:37;101310.69;;;18.86;100.00
71638;BME280;59485;43.542;-5.676;2023-04-27T09:51:03;101330.16;;;18.86;100.00
71638;BME280;59485;43.542;-5.676;2023-04-27T09:53:45;101337.09;;;18.77;100.00
71638;BME280;59485;43.542;-5.676;2023-04-27T09:59:09;101348.44;;;18.51;100.00
71638;BME280;59485;43.542;-5.676;2023-04-27T10:01:50;101357.44;;;18.46;100.00
71638;BME280;59485;43.542;-5.676;2023-04-27T10:07:11;101366.50;;;18.35;100.00
71638;BME280;59485;43.542;-5.676;2023-04-27T10:09:48;101363.44;;;18.43;100.00
71638;BME280;59485;43.542;-5.676;2023-04-27T10:12:21;101343.00;;;18.37;100.00
71638;BME280;59485;43.542;-5.676;2023-04-27T10:17:16;101364.78;;;18.41;100.00
71638;BME280;59485;43.542;-5.676;2023-04-27T10:20:03;101353.44;;;18.42;100.00
71638;BME280;59485;43.542;-5.676;2023-04-27T10:22:43;101347.31;;;18.58;100.00
71638;BME280;59485;43.542;-5.676;2023-04-27T10:25:22;101344.78;;;18.75;100.00
71638;BME280;59485;43.542;-5.676;2023-04-27T10:27:56;101344.63;;;18.88;100.00
71638;BME280;59485;43.542;-5.676;2023-04-27T10:30:24;101339.69;;;18.90;100.00
71638;BME280;59485;43.542;-5.676;2023-04-27T10:35:16;101330.59;;;18.83;100.00
71638;BME280;59485;43.542;-5.676;2023-04-27T10:37:42;101348.34;;;18.82;100.00
71638;BME280;59485;43.542;-5.676;2023-04-27T10:40:09;101349.09;;;18.71;100.00
71638;BME280;59485;43.542;-5.676;2023-04-27T10:42:35;101341.38;;;18.73;100.00
71638;BME280;59485;43.542;-5.676;2023-04-27T10:45:01;101346.81;;;18.68;100.00
71638;BME280;59485;43.542;-5.676;2023-04-27T10:47:40;101361.53;;;18.68;100.00
71638;BME280;59485;43.542;-5.676;2023-04-27T10:50:08;101321.78;;;18.43;100.00
71638;BME280;59485;43.542;-5.676;2023-04-27T10:52:42;101356.69;;;18.82;100.00
71638;BME280;59485;43.542;-5.676;2023-04-27T10:55:21;101338.72;;;18.42;100.00
71638;BME280;59485;43.542;-5.676;2023-04-27T10:57:50;101356.38;;;18.47;100.00
71638;BME280;59485;43.542;-5.676;2023-04-27T11:00:34;101359.28;;;18.34;100.00
71638;BME280;59485;43.542;-5.676;2023-04-27T11:05:36;101366.84;;;18.45;100.00
71638;BME280;59485;43.542;-5.676;2023-04-27T11:08:13;101362.56;;;18.24;100.00
71638;BME280;59485;43.542;-5.676;2023-04-27T11:10:45;101352.84;;;18.09;100.00
71638;BME280;59485;43.542;-5.676;2023-04-27T11:13:15;101351.22;;;18.01;100.00
71638;BME280;59485;43.542;-5.676;2023-04-27T11:15:50;101371.50;;;18.26;100.00
71638;BME280;59485;43.542;-5.676;2023-04-27T11:18:17;101370.81;;;18.31;100.00
71638;BME280;59485;43.542;-5.676;2023-04-27T11:20:45;101359.53;;;18.26;100.00
71638;BME280;59485;43.542;-5.676;2023-04-27T11:23:24;101363.16;;;18.26;100.00
71638;BME280;59485;43.542;-5.676;2023-04-27T11:25:50;101355.81;;;18.38;100.00
71638;BME280;59485;43.542;-5.676;2023-04-27T11:28:19;101340.34;;;18.49;100.00
71638;BME280;59485;43.542;-5.676;2023-04-27T11:30:46;101342.09;;;18.44;100.00
71638;BME280;59485;43.542;-5.676;2023-04-27T11:33:11;101346.25;;;18.53;100.00
71638;BME280;59485;43.542;-5.676;2023-04-27T11:35:37;101323.97;;;18.41;100.00
71638;BME280;59485;43.542;-5.676;2023-04-27T11:38:03;101342.41;;;18.54;100.00
71638;BME280;59485;43.542;-5.676;2023-04-27T11:40:29;101306.06;;;18.37;100.00
71638;BME280;59485;43.542;-5.676;2023-04-27T11:42:59;101311.16;;;18.65;100.00
71638;BME280;59485;43.542;-5.676;2023-04-27T11:45:29;101318.09;;;18.92;100.00
71638;BME280;59485;43.542;-5.676;2023-04-27T11:47:57;101326.66;;;18.91;100.00
71638;BME280;59485;43.542;-5.676;2023-04-27T11:50:23;101323.25;;;18.89;100.00
71638;BME280;59485;43.542;-5.676;2023-04-27T11:52:52;101312.09;;;18.95;100.00
71638;BME280;59485;43.542;-5.676;2023-04-27T11:55:20;101298.94;;;19.02;100.00
71638;BME280;59485;43.542;-5.676;2023-04-27T11:57:46;101302.88;;;19.13;100.00
71638;BME280;59485;43.542;-5.676;2023-04-27T12:00:12;101306.22;;;19.03;100.00
71638;BME280;59485;43.542;-5.676;2023-04-27T12:02:40;101314.84;;;19.14;100.00
71638;BME280;59485;43.542;-5.676;2023-04-27T12:05:06;101302.19;;;18.99;100.00
71638;BME280;59485;43.542;-5.676;2023-04-27T12:07:33;101316.94;;;19.00;100.00
71638;BME280;59485;43.542;-5.676;2023-04-27T12:09:59;101305.91;;;18.93;100.00
71638;BME280;59485;43.542;-5.676;2023-04-27T12:12:24;101293.72;;;18.94;100.00
71638;BME280;59485;43.542;-5.676;2023-04-27T12:14:51;101316.91;;;19.18;100.00
71638;BME280;59485;43.542;-5.676;2023-04-27T12:17:17;101299.88;;;19.15;100.00
71638;BME280;59485;43.542;-5.676;2023-04-27T12:19:46;101306.25;;;19.15;100.00
71638;BME280;59485;43.542;-5.676;2023-04-27T12:22:12;101298.00;;;19.08;100.00
71638;BME280;59485;43.542;-5.676;2023-04-27T12:24:38;101310.00;;;19.39;100.00
71638;BME280;59485;43.542;-5.676;2023-04-27T12:27:04;101320.97;;;19.34;100.00
71638;BME280;59485;43.542;-5.676;2023-04-27T12:29:30;101308.72;;;19.23;100.00
71638;BME280;59485;43.542;-5.676;2023-04-27T12:31:58;101305.13;;;19.34;100.00
71638;BME280;59485;43.542;-5.676;2023-04-27T12:34:24;101321.06;;;19.27;100.00
71638;BME280;59485;43.542;-5.676;2023-04-27T12:36:50;101327.47;;;19.28;100.00
71638;BME280;59485;43.542;-5.676;2023-04-27T12:39:18;101308.53;;;19.36;100.00
71638;BME280;59485;43.542;-5.676;2023-04-27T12:41:45;101284.34;;;19.07;100.00
71638;BME280;59485;43.542;-5.676;2023-04-27T12:44:11;101305.97;;;19.23;100.00
71638;BME280;59485;43.542;-5.676;2023-04-27T12:46:38;101316.81;;;19.25;100.00
71638;BME280;59485;43.542;-5.676;2023-04-27T12:49:03;101310.78;;;19.28;100.00
71638;BME280;59485;43.542;-5.676;2023-04-27T12:51:30;101303.19;;;19.23;100.00
71638;BME280;59485;43.542;-5.676;2023-04-27T12:53:57;101319.78;;;19.60;100.00